Time;durP1;ratioP1;P1;durP2;ratioP2;P2;SDS_P1;SDS_P2;PMS_P1;PMS_P2;Temp;Humidity;BMP_temperature;BMP_pressure;BME280_temperature;BME280_humidity;BME280_pressure;Samples;Min_cycle;Max_cycle;Signal;HPM_P1;HPM_P2
2021/06/08 00:02:14;;;;;;;27.88;19.15;;;16.00;99.90;;;;;;5001472;28;20735;-62
2021/06/08 00:04:40;;;;;;;22.02;18.60;;;15.90;99.90;;;;;;4982693;28;20138;-61
2021/06/08 00:07:06;;;;;;;26.88;19.55;;;16.00;99.90;;;;;;4997082;28;20033;-61
2021/06/08 00:09:31;;;;;;;21.38;19.08;;;15.90;99.90;;;;;;4992951;28;20037;-61
2021/06/08 00:11:57;;;;;;;24.25;19.15;;;15.90;99.90;;;;;;4992350;28;20539;-62
2021/06/08 00:14:22;;;;;;;24.15;19.70;;;15.90;99.90;;;;;;4995465;28;20030;-61
2021/06/08 00:16:48;;;;;;;25.70;19.90;;;15.90;99.90;;;;;;4998112;28;20467;-62
2021/06/08 00:19:13;;;;;;;24.23;20.42;;;15.90;99.90;;;;;;5002252;28;20037;-62
2021/06/08 00:21:39;;;;;;;22.90;20.50;;;15.90;99.90;;;;;;4994645;28;20092;-62
2021/06/08 00:24:05;;;;;;;26.67;19.95;;;15.90;99.90;;;;;;5001848;28;20022;-62
2021/06/08 00:26:33;;;;;;;23.75;20.00;;;15.90;99.90;;;;;;4991596;28;20030;-61
2021/06/08 00:28:59;;;;;;;25.45;21.13;;;15.80;99.90;;;;;;4995150;28;20495;-61
2021/06/08 00:31:24;;;;;;;24.08;19.77;;;15.90;99.90;;;;;;4996417;28;20045;-63
2021/06/08 00:33:50;;;;;;;25.60;20.83;;;15.90;99.90;;;;;;4993397;28;20034;-62
2021/06/08 00:36:16;;;;;;;28.00;21.77;;;15.80;99.90;;;;;;4970369;28;20034;-63
2021/06/08 00:38:42;;;;;;;26.17;21.10;;;15.80;99.90;;;;;;4991735;28;20396;-62
2021/06/08 00:41:08;;;;;;;26.42;20.80;;;15.80;99.90;;;;;;4995370;28;20037;-62
2021/06/08 00:43:34;;;;;;;30.05;23.52;;;15.80;99.90;;;;;;4997559;28;20054;-60
2021/06/08 00:46:00;;;;;;;27.75;23.63;;;15.70;99.90;;;;;;4998217;28;20018;-63
2021/06/08 00:48:26;;;;;;;33.33;24.95;;;15.80;99.90;;;;;;4995711;28;20463;-61
2021/06/08 00:50:51;;;;;;;31.00;23.85;;;15.70;99.90;;;;;;5000066;28;20038;-63
2021/06/08 00:53:17;;;;;;;37.75;25.33;;;15.70;99.90;;;;;;5000593;28;20037;-61
2021/06/08 00:55:43;;;;;;;30.83;24.02;;;15.70;99.90;;;;;;4988495;28;20037;-62
2021/06/08 00:58:08;;;;;;;26.70;23.35;;;15.70;99.90;;;;;;4990252;28;20085;-62
2021/06/08 01:00:34;;;;;;;27.40;23.33;;;15.70;99.90;;;;;;4994450;28;20033;-62
2021/06/08 01:02:59;;;;;;;25.88;23.17;;;15.70;99.90;;;;;;4978213;28;20038;-62
2021/06/08 01:05:25;;;;;;;26.75;22.38;;;15.80;99.90;;;;;;4992302;28;20084;-62
2021/06/08 01:07:51;;;;;;;27.13;22.73;;;15.80;99.90;;;;;;5002196;28;20509;-61
2021/06/08 01:10:17;;;;;;;27.33;21.92;;;15.80;99.90;;;;;;4997794;28;20043;-62
2021/06/08 01:12:43;;;;;;;25.58;21.23;;;15.80;99.90;;;;;;4998662;28;20026;-62
2021/06/08 01:15:09;;;;;;;25.77;20.17;;;15.80;99.90;;;;;;4988405;28;20443;-63
2021/06/08 01:17:35;;;;;;;26.77;21.65;;;15.80;99.90;;;;;;4988317;28;20116;-63
2021/06/08 01:20:01;;;;;;;24.38;21.77;;;15.80;99.90;;;;;;4992371;28;20057;-63
2021/06/08 01:22:28;;;;;;;23.70;21.17;;;15.90;99.90;;;;;;4998405;28;20029;-63
2021/06/08 01:24:54;;;;;;;28.08;22.70;;;15.90;99.90;;;;;;4994896;28;20041;-62
2021/06/08 01:27:21;;;;;;;23.48;20.98;;;15.80;99.90;;;;;;4992850;28;20034;-62
2021/06/08 01:29:48;;;;;;;29.88;21.73;;;15.80;99.90;;;;;;4997935;28;20029;-63
2021/06/08 01:32:15;;;;;;;26.05;22.90;;;15.80;99.90;;;;;;4997892;28;20030;-62
2021/06/08 01:34:43;;;;;;;28.13;22.92;;;15.80;99.90;;;;;;4996082;28;20034;-61
2021/06/08 01:37:09;;;;;;;25.15;22.15;;;15.80;99.90;;;;;;4990834;28;20058;-62
2021/06/08 01:39:37;;;;;;;39.08;24.40;;;15.70;99.90;;;;;;4991013;28;20417;-62
2021/06/08 01:42:04;;;;;;;28.20;22.52;;;15.80;99.90;;;;;;5005833;28;20131;-62
2021/06/08 01:44:29;;;;;;;25.90;23.10;;;15.80;99.90;;;;;;4992548;28;20101;-62
2021/06/08 01:46:55;;;;;;;28.40;23.55;;;15.70;99.90;;;;;;5003143;28;20109;-62
2021/06/08 01:49:20;;;;;;;31.83;26.25;;;15.80;99.90;;;;;;4995391;28;20427;-62
2021/06/08 01:52:17;;;;;;;28.63;24.90;;;15.80;99.90;;;;;;5002010;28;20038;-62
2021/06/08 01:55:04;;;;;;;32.95;23.88;;;15.90;99.90;;;;;;4997782;28;20034;-62
2021/06/08 01:57:40;;;;;;;26.30;21.52;;;15.80;99.90;;;;;;4972337;28;20031;-62
2021/06/08 02:00:07;;;;;;;23.23;20.77;;;15.80;99.90;;;;;;4985257;28;20048;-62
2021/06/08 02:02:48;;;;;;;24.45;19.23;;;15.80;99.90;;;;;;4990087;28;20069;-61
2021/06/08 02:05:51;;;;;;;22.02;19.67;;;15.80;99.90;;;;;;5003749;28;20030;-62
2021/06/08 02:08:38;;;;;;;23.08;19.35;;;15.70;99.90;;;;;;4991140;28;20516;-63
2021/06/08 02:11:09;;;;;;;24.50;19.98;;;15.70;99.90;;;;;;4995681;28;20099;-61
2021/06/08 02:14:00;;;;;;;24.85;19.38;;;15.70;99.90;;;;;;4994452;28;20049;-61
2021/06/08 02:16:35;;;;;;;27.73;20.83;;;15.70;99.90;;;;;;4997246;28;20028;-62
2021/06/08 02:19:01;;;;;;;28.52;21.80;;;15.70;99.90;;;;;;4991297;28;20516;-61
2021/06/08 02:21:33;;;;;;;24.17;21.58;;;15.70;99.90;;;;;;5000028;28;20054;-61
2021/06/08 02:24:02;;;;;;;25.88;20.38;;;15.70;99.90;;;;;;4984377;28;20416;-61
2021/06/08 02:26:28;;;;;;;22.92;20.48;;;15.80;99.90;;;;;;4995535;28;20484;-62
2021/06/08 02:28:56;;;;;;;24.27;21.63;;;15.80;99.90;;;;;;4998318;28;20034;-63
2021/06/08 02:31:24;;;;;;;29.15;20.83;;;15.70;99.90;;;;;;4997259;28;20026;-62
2021/06/08 02:33:51;;;;;;;29.65;21.58;;;15.70;99.90;;;;;;5003243;28;20030;-61
2021/06/08 02:36:18;;;;;;;24.88;21.58;;;15.70;99.90;;;;;;4998985;28;20452;-62
2021/06/08 02:38:45;;;;;;;25.45;22.77;;;15.60;99.90;;;;;;5002939;28;20309;-62
2021/06/08 02:41:11;;;;;;;26.10;22.98;;;15.60;99.90;;;;;;4996143;28;20018;-62
2021/06/08 02:43:38;;;;;;;25.77;22.45;;;15.60;99.90;;;;;;4990292;28;20450;-62
2021/06/08 02:46:05;;;;;;;30.10;24.98;;;15.60;99.90;;;;;;4986584;28;20030;-62
2021/06/08 02:48:32;;;;;;;31.45;25.75;;;15.50;99.90;;;;;;4988485;28;20441;-62
2021/06/08 02:50:59;;;;;;;28.15;25.08;;;15.50;99.90;;;;;;4993460;28;20033;-62
2021/06/08 02:53:25;;;;;;;32.92;25.33;;;15.50;99.90;;;;;;5001380;28;20033;-62
2021/06/08 02:55:52;;;;;;;34.05;24.27;;;15.60;99.90;;;;;;4992962;28;20030;-62
2021/06/08 02:58:19;;;;;;;32.45;26.75;;;15.60;99.90;;;;;;5002670;28;20034;-62
2021/06/08 03:00:45;;;;;;;30.85;27.00;;;15.70;99.90;;;;;;4996537;28;20030;-62
2021/06/08 03:03:15;;;;;;;37.13;26.65;;;15.70;99.90;;;;;;4972968;28;20038;-62
2021/06/08 03:06:02;;;;;;;29.85;26.33;;;15.70;99.90;;;;;;4989450;28;20041;-62
2021/06/08 03:08:38;;;;;;;34.75;25.42;;;15.70;99.90;;;;;;4986355;28;20034;-62
2021/06/08 03:11:07;;;;;;;31.27;25.60;;;15.70;99.90;;;;;;4999074;28;20026;-63
2021/06/08 03:13:35;;;;;;;29.02;25.05;;;15.80;99.90;;;;;;5004929;28;20149;-61
2021/06/08 03:16:03;;;;;;;31.63;24.77;;;15.70;99.90;;;;;;5001600;28;20061;-62
2021/06/08 03:18:31;;;;;;;31.00;27.33;;;15.70;99.90;;;;;;5004017;28;20029;-63
2021/06/08 03:21:10;;;;;;;31.77;26.35;;;15.70;99.90;;;;;;5000766;28;20061;-62
2021/06/08 03:23:44;;;;;;;28.23;25.02;;;15.70;99.90;;;;;;4997222;28;20022;-62
2021/06/08 03:26:10;;;;;;;34.20;25.52;;;15.70;99.90;;;;;;5002981;28;20026;-63
2021/06/08 03:28:38;;;;;;;34.95;27.83;;;15.70;99.90;;;;;;4997689;28;20480;-62
2021/06/08 03:31:04;;;;;;;29.05;25.70;;;15.70;99.90;;;;;;5002629;28;20045;-62
2021/06/08 03:33:30;;;;;;;30.65;26.02;;;15.70;99.90;;;;;;4989567;28;20022;-62
2021/06/08 03:35:57;;;;;;;27.95;24.15;;;15.70;99.90;;;;;;5006883;28;20032;-62
2021/06/08 03:38:24;;;;;;;28.80;23.83;;;15.70;99.90;;;;;;5000632;28;20050;-61
2021/06/08 03:40:51;;;;;;;27.23;22.45;;;15.70;99.90;;;;;;5001464;28;20032;-63
2021/06/08 03:43:18;;;;;;;28.85;25.05;;;15.70;99.90;;;;;;5004790;28;20446;-62
2021/06/08 03:45:50;;;;;;;27.40;22.77;;;15.70;99.90;;;;;;5000144;28;20030;-62
2021/06/08 03:48:17;;;;;;;27.65;23.67;;;15.70;99.90;;;;;;5005462;28;20022;-62
2021/06/08 03:50:44;;;;;;;31.02;25.42;;;15.70;99.90;;;;;;4998052;28;20413;-63
2021/06/08 03:53:10;;;;;;;32.35;24.13;;;15.60;99.90;;;;;;4993043;28;20392;-61
2021/06/08 03:55:37;;;;;;;27.00;23.95;;;15.60;99.90;;;;;;4994458;28;20092;-62
2021/06/08 03:58:14;;;;;;;31.52;24.83;;;15.60;99.90;;;;;;4996396;28;20113;-63
2021/06/08 04:00:40;;;;;;;28.33;24.15;;;15.70;99.90;;;;;;4996617;28;20450;-62
2021/06/08 04:03:09;;;;;;;30.80;24.33;;;15.70;99.90;;;;;;4992047;28;20476;-61
2021/06/08 04:05:36;;;;;;;32.22;25.88;;;15.80;99.90;;;;;;4984519;28;20045;-62
2021/06/08 04:08:04;;;;;;;33.33;26.33;;;15.80;99.90;;;;;;5001808;28;20045;-63
2021/06/08 04:10:45;;;;;;;28.67;25.47;;;15.80;99.90;;;;;;4957394;28;20063;-62
2021/06/08 04:13:11;;;;;;;31.05;24.35;;;15.80;99.90;;;;;;4998997;28;20038;-62
2021/06/08 04:15:37;;;;;;;28.67;25.55;;;15.80;99.90;;;;;;5002406;28;20034;-62
2021/06/08 04:18:04;;;;;;;28.63;25.48;;;15.90;99.90;;;;;;5004517;28;20038;-62
2021/06/08 04:20:30;;;;;;;32.72;24.42;;;15.90;99.90;;;;;;5003057;28;20101;-62
2021/06/08 04:22:57;;;;;;;30.23;24.63;;;15.90;99.90;;;;;;4999528;28;20049;-63
2021/06/08 04:25:25;;;;;;;28.88;23.75;;;15.90;99.90;;;;;;4998180;28;20035;-61
2021/06/08 04:27:52;;;;;;;26.48;23.73;;;15.90;99.90;;;;;;5003402;28;20088;-62
2021/06/08 04:30:19;;;;;;;28.85;23.92;;;16.00;99.90;;;;;;4997542;28;20061;-62
2021/06/08 04:32:46;;;;;;;28.67;25.42;;;16.00;99.90;;;;;;4992406;28;20069;-63
2021/06/08 04:35:12;;;;;;;28.55;25.15;;;16.10;99.90;;;;;;4985543;28;20401;-61
2021/06/08 04:37:38;;;;;;;28.13;24.63;;;16.10;99.90;;;;;;4990552;28;20045;-61
2021/06/08 04:40:05;;;;;;;31.33;25.30;;;16.10;99.90;;;;;;4996615;28;20019;-62
2021/06/08 04:42:31;;;;;;;28.15;25.10;;;16.20;99.90;;;;;;4991609;28;20109;-63
2021/06/08 04:44:57;;;;;;;37.05;26.85;;;16.20;99.90;;;;;;4992492;28;20049;-62
2021/06/08 04:47:23;;;;;;;28.98;24.40;;;16.20;99.90;;;;;;5002022;28;20061;-62
2021/06/08 04:49:50;;;;;;;32.70;25.27;;;16.30;99.90;;;;;;5001528;28;20037;-63
2021/06/08 04:52:16;;;;;;;32.08;25.88;;;16.40;99.90;;;;;;5005109;28;20104;-62
2021/06/08 04:54:42;;;;;;;29.70;25.80;;;16.40;99.90;;;;;;4999554;28;20117;-62
2021/06/08 04:57:11;;;;;;;28.83;23.15;;;16.40;99.90;;;;;;4993314;28;20023;-63
2021/06/08 04:59:49;;;;;;;30.67;25.42;;;16.50;99.90;;;;;;4992453;28;20022;-62
2021/06/08 05:02:47;;;;;;;28.75;25.00;;;16.60;99.90;;;;;;4991750;28;20062;-62
2021/06/08 05:05:29;;;;;;;28.70;24.70;;;16.70;99.90;;;;;;4973069;28;20503;-61
2021/06/08 05:08:05;;;;;;;30.42;25.00;;;16.90;99.90;;;;;;5000346;28;20502;-63
2021/06/08 05:10:36;;;;;;;28.85;24.60;;;17.00;99.90;;;;;;4995873;28;20064;-63
2021/06/08 05:13:02;;;;;;;26.17;23.00;;;17.10;99.90;;;;;;5000226;28;20037;-62
2021/06/08 05:15:29;;;;;;;30.48;25.05;;;17.20;99.90;;;;;;4999299;28;20079;-62
2021/06/08 05:17:55;;;;;;;29.38;24.83;;;17.30;99.90;;;;;;5003238;28;20026;-62
2021/06/08 05:20:22;;;;;;;25.88;22.23;;;17.30;99.90;;;;;;5002193;28;20018;-62
2021/06/08 05:22:50;;;;;;;26.08;23.27;;;17.40;99.90;;;;;;5000675;28;20026;-62
2021/06/08 05:25:16;;;;;;;28.33;24.48;;;17.50;99.90;;;;;;4991904;28;20030;-62
2021/06/08 05:27:44;;;;;;;26.98;23.00;;;17.60;99.90;;;;;;5002581;28;20033;-62
2021/06/08 05:30:10;;;;;;;30.70;24.30;;;17.70;99.90;;;;;;4997084;28;20030;-62
2021/06/08 05:32:39;;;;;;;27.63;22.52;;;17.90;99.90;;;;;;4991248;28;20062;-62
2021/06/08 05:35:07;;;;;;;28.08;21.33;;;18.10;99.90;;;;;;4997549;28;20064;-62
2021/06/08 05:37:42;;;;;;;27.58;22.42;;;18.10;99.90;;;;;;5002152;28;20047;-62
2021/06/08 05:40:10;;;;;;;26.75;23.48;;;18.10;99.90;;;;;;4990877;28;20109;-62
2021/06/08 05:42:36;;;;;;;24.77;21.75;;;18.10;99.90;;;;;;5005078;28;20033;-62
2021/06/08 05:45:02;;;;;;;29.50;23.67;;;18.10;99.90;;;;;;4995810;28;20396;-61
2021/06/08 05:47:28;;;;;;;26.55;22.80;;;18.10;99.90;;;;;;4996520;28;20117;-61
2021/06/08 05:49:53;;;;;;;25.30;22.63;;;18.20;99.90;;;;;;5000703;28;20411;-61
2021/06/08 05:52:20;;;;;;;24.10;21.60;;;18.30;99.90;;;;;;4994935;28;20547;-62
2021/06/08 05:54:46;;;;;;;25.45;22.77;;;18.20;99.90;;;;;;4987599;28;20043;-60
2021/06/08 05:57:13;;;;;;;27.50;22.05;;;18.30;99.90;;;;;;4990591;28;20035;-61
2021/06/08 05:59:40;;;;;;;28.33;22.90;;;18.20;99.90;;;;;;5002262;28;20025;-62
2021/06/08 06:02:06;;;;;;;26.63;22.48;;;18.30;99.90;;;;;;4997718;28;20149;-62
2021/06/08 06:04:32;;;;;;;23.95;21.23;;;18.40;99.90;;;;;;4983627;28;20125;-62
2021/06/08 06:06:58;;;;;;;23.73;20.80;;;18.40;99.90;;;;;;4993358;28;20041;-63
2021/06/08 06:09:25;;;;;;;26.70;21.17;;;18.40;99.90;;;;;;4985100;28;20408;-62
2021/06/08 06:11:53;;;;;;;27.15;22.55;;;18.50;99.90;;;;;;4989381;28;20061;-61
2021/06/08 06:14:24;;;;;;;23.30;20.80;;;18.50;99.90;;;;;;4995264;28;20045;-63
2021/06/08 06:16:53;;;;;;;25.13;19.92;;;18.60;99.90;;;;;;4999741;28;20264;-62
2021/06/08 06:19:24;;;;;;;23.05;20.52;;;18.60;99.90;;;;;;5002820;28;20014;-63
2021/06/08 06:21:52;;;;;;;23.42;19.55;;;18.80;99.90;;;;;;4993108;28;20042;-62
2021/06/08 06:24:18;;;;;;;23.15;20.40;;;18.70;99.90;;;;;;4998717;28;20501;-61
2021/06/08 06:26:45;;;;;;;24.25;21.63;;;18.80;99.90;;;;;;4994782;28;20109;-62
2021/06/08 06:29:13;;;;;;;22.98;20.13;;;18.80;99.90;;;;;;5001248;28;20026;-61
2021/06/08 06:31:44;;;;;;;29.60;21.00;;;18.90;99.90;;;;;;4988574;28;20172;-61
2021/06/08 06:34:12;;;;;;;24.33;21.70;;;19.20;99.90;;;;;;4994986;28;20021;-62
2021/06/08 06:36:39;;;;;;;24.58;20.67;;;19.40;99.90;;;;;;4996630;28;20033;-61
2021/06/08 06:39:10;;;;;;;23.92;19.05;;;19.40;99.90;;;;;;4995582;28;20026;-62
2021/06/08 06:41:42;;;;;;;23.58;20.98;;;19.50;99.90;;;;;;4996317;28;20049;-62
2021/06/08 06:44:08;;;;;;;21.67;18.33;;;19.70;99.90;;;;;;4981340;28;20062;-62
2021/06/08 06:46:34;;;;;;;25.40;20.85;;;20.00;99.90;;;;;;4996410;28;20026;-60
2021/06/08 06:49:00;;;;;;;22.50;20.05;;;20.30;99.90;;;;;;4994392;28;20049;-62
2021/06/08 06:51:26;;;;;;;20.55;18.27;;;20.40;99.90;;;;;;4999698;28;20108;-62
2021/06/08 06:53:55;;;;;;;21.75;18.20;;;20.80;99.90;;;;;;4990258;28;20033;-61
2021/06/08 06:56:22;;;;;;;22.33;17.17;;;21.50;99.90;;;;;;4995044;28;20030;-62
2021/06/08 06:58:49;;;;;;;19.58;16.15;;;22.70;99.90;;;;;;4993724;28;20039;-62
2021/06/08 07:01:15;;;;;;;21.60;16.05;;;23.70;99.90;;;;;;4996694;28;20073;-62
2021/06/08 07:03:41;;;;;;;16.23;13.82;;;24.30;98.70;;;;;;4994501;28;20034;-63
2021/06/08 07:06:09;;;;;;;19.15;14.93;;;25.10;97.50;;;;;;4977639;28;20038;-63
2021/06/08 07:08:36;;;;;;;20.58;14.32;;;26.10;96.60;;;;;;4999772;28;20030;-63
2021/06/08 07:11:01;;;;;;;15.10;12.15;;;28.10;91.70;;;;;;4997211;28;20081;-63
2021/06/08 07:13:27;;;;;;;20.20;13.73;;;29.10;83.20;;;;;;4999322;28;20484;-63
2021/06/08 07:15:54;;;;;;;13.85;12.35;;;28.10;80.70;;;;;;4999562;28;20030;-63
2021/06/08 07:18:20;;;;;;;14.25;12.63;;;28.50;80.30;;;;;;5003707;28;20510;-63
2021/06/08 07:20:46;;;;;;;12.65;11.43;;;27.50;78.50;;;;;;4997666;28;20034;-63
2021/06/08 07:23:16;;;;;;;14.40;9.48;;;27.00;82.80;;;;;;4998530;28;20017;-62
2021/06/08 07:25:42;;;;;;;11.73;10.52;;;27.30;80.40;;;;;;4999351;28;20018;-63
2021/06/08 07:28:10;;;;;;;15.98;11.27;;;27.20;83.20;;;;;;4997900;28;20031;-63
2021/06/08 07:30:37;;;;;;;10.40;9.35;;;27.50;77.70;;;;;;4994752;28;20145;-61
2021/06/08 07:33:08;;;;;;;10.93;8.77;;;27.40;80.50;;;;;;4989487;28;20113;-62
2021/06/08 07:35:50;;;;;;;10.82;8.90;;;27.90;76.50;;;;;;4996971;28;20058;-62
2021/06/08 07:38:24;;;;;;;15.80;9.07;;;28.80;73.50;;;;;;4999840;28;20069;-62
2021/06/08 07:40:57;;;;;;;9.75;8.75;;;28.30;74.40;;;;;;4997137;28;20026;-62
2021/06/08 07:43:29;;;;;;;10.40;9.40;;;28.00;74.60;;;;;;4992942;28;20026;-63
2021/06/08 07:45:55;;;;;;;12.18;9.15;;;27.60;74.60;;;;;;4994660;28;20451;-63
2021/06/08 07:48:29;;;;;;;13.57;8.65;;;27.80;77.20;;;;;;4992572;28;20483;-63
2021/06/08 07:50:57;;;;;;;9.00;6.65;;;28.60;71.60;;;;;;5001958;28;20113;-63
2021/06/08 07:53:25;;;;;;;9.35;7.88;;;28.10;71.30;;;;;;5000558;28;20154;-62
2021/06/08 07:55:51;;;;;;;8.50;7.53;;;27.40;73.80;;;;;;5003361;28;20062;-63
2021/06/08 07:58:25;;;;;;;9.05;7.10;;;27.20;73.10;;;;;;5003766;28;20026;-63
2021/06/08 08:00:57;;;;;;;10.88;7.53;;;27.00;75.80;;;;;;4996351;28;20019;-62
2021/06/08 08:05:53;;;;;;;10.43;9.43;;;27.00;71.60;;;;;;4970776;28;20137;-63
2021/06/08 08:08:20;;;;;;;9.00;7.80;;;26.60;73.60;;;;;;4990331;28;20038;-61
2021/06/08 08:10:48;;;;;;;11.20;8.07;;;26.60;74.80;;;;;;4993081;28;20061;-63
2021/06/08 08:13:16;;;;;;;12.25;9.30;;;26.60;77.50;;;;;;5000240;28;20039;-63
2021/06/08 08:15:48;;;;;;;7.90;7.10;;;26.60;73.40;;;;;;4994084;28;20030;-62
2021/06/08 08:18:14;;;;;;;9.23;8.18;;;26.30;77.70;;;;;;4990843;28;20027;-62
2021/06/08 08:20:56;;;;;;;10.93;8.93;;;25.80;77.90;;;;;;4991577;28;20506;-62
2021/06/08 08:23:24;;;;;;;10.68;7.65;;;26.10;77.70;;;;;;4992256;28;20026;-62
2021/06/08 08:25:50;;;;;;;15.23;10.07;;;25.90;77.80;;;;;;4987841;28;20045;-61
2021/06/08 08:28:17;;;;;;;13.98;11.02;;;25.80;80.50;;;;;;4996941;28;20475;-61
2021/06/08 08:30:43;;;;;;;12.02;10.35;;;25.70;80.10;;;;;;5004517;28;20084;-62
2021/06/08 08:33:08;;;;;;;12.07;8.93;;;25.30;79.80;;;;;;5000551;28;20403;-62
2021/06/08 08:35:37;;;;;;;10.48;9.13;;;25.50;80.80;;;;;;4979582;28;20065;-61
2021/06/08 08:38:03;;;;;;;9.10;7.35;;;25.70;78.90;;;;;;4992163;28;20038;-61
2021/06/08 08:40:30;;;;;;;8.23;6.20;;;25.60;77.80;;;;;;4991570;28;20019;-62
2021/06/08 08:42:59;;;;;;;7.00;6.30;;;25.60;80.20;;;;;;4998550;28;20034;-61
2021/06/08 08:45:25;;;;;;;5.90;5.35;;;25.40;78.20;;;;;;4988838;28;20596;-62
2021/06/08 08:47:53;;;;;;;8.52;6.88;;;25.50;75.30;;;;;;4999009;28;20129;-62
2021/06/08 08:50:18;;;;;;;8.55;6.18;;;25.30;78.40;;;;;;4987158;28;20019;-63
2021/06/08 08:52:55;;;;;;;6.57;5.60;;;25.60;75.00;;;;;;4995570;28;20022;-62
2021/06/08 08:55:25;;;;;;;9.82;7.53;;;25.30;77.00;;;;;;4990986;28;20109;-62
2021/06/08 08:57:52;;;;;;;7.72;5.97;;;25.10;79.00;;;;;;4993603;28;20488;-62
2021/06/08 09:00:19;;;;;;;10.27;5.97;;;25.00;76.30;;;;;;4997078;28;20499;-62
2021/06/08 09:02:45;;;;;;;10.13;7.05;;;24.50;77.70;;;;;;5001489;28;20027;-62
2021/06/08 09:05:11;;;;;;;7.60;6.38;;;24.30;80.20;;;;;;4980019;28;20045;-61
2021/06/08 09:07:37;;;;;;;10.25;5.97;;;24.00;82.00;;;;;;4990707;28;20038;-62
2021/06/08 09:10:09;;;;;;;7.50;5.70;;;23.80;83.90;;;;;;4993082;28;20113;-62
2021/06/08 09:12:36;;;;;;;8.85;5.78;;;23.90;84.60;;;;;;4990896;28;20053;-62
2021/06/08 09:15:05;;;;;;;6.22;5.53;;;23.60;85.20;;;;;;5002482;28;20021;-62
2021/06/08 09:17:31;;;;;;;7.28;5.70;;;23.70;84.00;;;;;;5001964;28;20076;-62
2021/06/08 09:19:57;;;;;;;7.53;6.28;;;23.70;86.50;;;;;;5000805;28;20057;-62
2021/06/08 09:22:23;;;;;;;12.82;7.15;;;24.10;84.00;;;;;;5002004;28;20037;-62
2021/06/08 09:24:54;;;;;;;9.00;6.57;;;24.10;84.00;;;;;;4988644;28;20084;-62
2021/06/08 09:27:31;;;;;;;10.02;7.40;;;24.00;85.50;;;;;;4997307;28;20033;-62
2021/06/08 09:29:56;;;;;;;11.63;7.43;;;24.10;86.20;;;;;;4991498;28;20030;-61
2021/06/08 09:32:24;;;;;;;14.93;8.23;;;24.20;83.80;;;;;;4982464;28;20470;-62
2021/06/08 09:34:53;;;;;;;7.95;6.68;;;24.20;85.00;;;;;;4988034;28;20030;-62
2021/06/08 09:37:41;;;;;;;8.68;6.20;;;24.00;87.30;;;;;;4994328;28;20030;-62
2021/06/08 09:40:24;;;;;;;9.57;7.57;;;24.20;89.40;;;;;;4988995;28;20041;-62
2021/06/08 09:43:02;;;;;;;;;;;24.60;83.10;;;;;;4990678;28;20026;-61
2021/06/08 09:45:46;;;;;;;7.00;6.15;;;24.80;82.40;;;;;;4987656;28;19917;-62
2021/06/08 09:48:13;;;;;;;12.05;6.53;;;25.30;81.40;;;;;;4994112;28;20034;-62
2021/06/08 09:50:45;;;;;;;8.68;6.93;;;25.70;78.70;;;;;;4998532;28;20040;-63
2021/06/08 09:53:37;;;;;;;6.93;5.47;;;26.50;73.80;;;;;;4991269;28;20041;-63
2021/06/08 09:56:06;;;;;;;7.90;5.93;;;26.90;74.50;;;;;;4981924;28;20109;-61
2021/06/08 09:58:35;;;;;;;11.82;7.53;;;26.30;77.20;;;;;;4992955;28;20038;-62
2021/06/08 10:01:10;;;;;;;7.05;6.22;;;25.60;75.00;;;;;;4986376;28;20492;-63
2021/06/08 10:03:41;;;;;;;10.70;6.03;;;24.90;77.90;;;;;;4992551;28;20034;-62
2021/06/08 10:06:12;;;;;;;8.48;6.25;;;24.90;79.70;;;;;;4963657;28;20069;-62
2021/06/08 10:08:49;;;;;;;8.13;6.43;;;24.10;82.70;;;;;;4994584;28;20088;-62
2021/06/08 10:11:16;;;;;;;7.93;5.60;;;23.90;84.20;;;;;;4997946;28;20061;-61
2021/06/08 10:13:42;;;;;;;7.07;5.53;;;23.90;85.80;;;;;;4999183;28;20060;-62
2021/06/08 10:16:08;;;;;;;7.05;5.82;;;23.90;86.20;;;;;;4998213;28;20050;-62
2021/06/08 10:18:46;;;;;;;9.73;7.60;;;23.90;86.50;;;;;;4991726;28;20027;-60
2021/06/08 10:21:12;;;;;;;9.70;7.03;;;23.60;85.90;;;;;;4988394;28;20044;-62
2021/06/08 10:23:38;;;;;;;10.10;6.85;;;23.50;90.10;;;;;;4988138;28;20078;-63
2021/06/08 10:26:05;;;;;;;9.85;6.97;;;23.80;86.90;;;;;;5003207;28;20018;-63
2021/06/08 10:28:31;;;;;;;11.15;7.40;;;23.50;86.50;;;;;;4998141;28;20081;-62
2021/06/08 10:30:58;;;;;;;9.63;7.80;;;23.70;89.70;;;;;;4997905;28;20041;-61
2021/06/08 10:33:25;;;;;;;8.80;7.75;;;24.00;85.20;;;;;;4997032;28;20121;-62
2021/06/08 10:35:51;;;;;;;7.45;6.50;;;23.90;87.30;;;;;;4994778;28;20512;-62
2021/06/08 10:38:18;;;;;;;10.38;6.88;;;24.30;87.80;;;;;;4990775;28;20038;-62
2021/06/08 10:40:46;;;;;;;8.25;6.43;;;24.50;86.60;;;;;;4978929;28;20031;-62
2021/06/08 10:43:25;;;;;;;7.78;6.63;;;25.00;84.10;;;;;;4988945;28;20101;-62
2021/06/08 10:45:54;;;;;;;9.00;6.90;;;25.00;84.40;;;;;;4985596;28;20034;-62
2021/06/08 10:48:36;;;;;;;9.18;7.53;;;25.20;85.00;;;;;;4992883;28;20026;-63
2021/06/08 10:51:09;;;;;;;8.48;6.97;;;25.20;81.30;;;;;;4994890;28;20041;-61
2021/06/08 10:53:37;;;;;;;8.27;6.72;;;25.50;84.40;;;;;;4994792;28;20037;-62
2021/06/08 10:56:19;;;;;;;10.00;7.72;;;25.50;80.20;;;;;;4999659;28;20536;-60
2021/06/08 10:58:55;;;;;;;12.30;7.65;;;26.10;80.10;;;;;;4990406;28;20034;-63
2021/06/08 11:04:15;;;;;;;9.38;6.45;;;26.60;76.90;;;;;;4982523;28;20026;-63
2021/06/08 11:06:50;;;;;;;12.80;7.57;;;26.50;77.50;;;;;;4969314;28;20043;-62
2021/06/08 11:09:22;;;;;;;6.63;5.82;;;26.60;76.40;;;;;;4986416;28;20492;-62
2021/06/08 11:11:54;;;;;;;9.57;6.55;;;26.50;78.10;;;;;;4994225;28;20042;-62
2021/06/08 11:17:04;;;;;;;10.25;7.13;;;26.90;74.10;;;;;;4990826;28;20078;-62
2021/06/08 11:19:45;;;;;;;7.45;6.25;;;26.60;77.00;;;;;;4985698;28;20034;-60
2021/06/08 11:22:13;;;;;;;8.20;6.72;;;26.40;81.40;;;;;;4996295;28;20018;-62
2021/06/08 11:24:40;;;;;;;6.65;6.00;;;27.00;76.10;;;;;;4995741;28;20399;-63
2021/06/08 11:27:07;;;;;;;7.32;4.80;;;27.10;74.50;;;;;;5002336;28;20037;-62
2021/06/08 11:29:53;;;;;;;7.72;5.63;;;27.20;74.00;;;;;;4999905;28;20495;-63
2021/06/08 11:32:32;;;;;;;8.02;5.65;;;27.00;73.10;;;;;;4989921;28;20026;-61
2021/06/08 11:35:09;;;;;;;7.38;5.55;;;26.70;74.20;;;;;;5003298;28;20030;-61
2021/06/08 11:37:55;;;;;;;6.45;4.90;;;26.30;74.90;;;;;;4989221;28;20038;-60
2021/06/08 11:40:47;;;;;;;7.57;6.38;;;26.30;77.70;;;;;;4989152;28;20088;-62
2021/06/08 11:43:14;;;;;;;6.65;5.30;;;25.80;76.10;;;;;;4989037;28;20030;-61
2021/06/08 11:45:40;;;;;;;6.03;4.85;;;25.30;76.80;;;;;;4992980;28;20120;-61
2021/06/08 11:48:31;;;;;;;8.43;4.72;;;25.30;79.50;;;;;;4990772;28;20499;-61
2021/06/08 11:50:58;;;;;;;7.30;5.35;;;25.50;78.90;;;;;;4990653;28;20396;-61
2021/06/08 11:53:24;;;;;;;5.55;4.78;;;25.80;77.30;;;;;;4986438;28;20046;-60
2021/06/08 11:56:10;;;;;;;8.30;6.00;;;26.20;78.80;;;;;;4980989;28;20058;-63
2021/06/08 11:58:37;;;;;;;7.82;5.85;;;26.40;74.00;;;;;;4985139;28;20039;-60
2021/06/08 12:01:07;;;;;;;6.20;5.60;;;26.10;73.50;;;;;;4992069;28;20065;-62
2021/06/08 12:03:38;;;;;;;6.63;5.90;;;25.50;77.90;;;;;;4971678;28;20105;-61
2021/06/08 12:06:06;;;;;;;6.57;4.82;;;25.20;75.60;;;;;;4979531;28;20038;-60
2021/06/08 12:08:33;;;;;;;4.78;4.30;;;25.30;76.70;;;;;;4982213;28;20049;-61
2021/06/08 12:11:12;;;;;;;8.18;5.03;;;25.50;76.80;;;;;;4982326;28;20022;-61
2021/06/08 12:13:40;;;;;;;6.10;5.03;;;25.60;76.50;;;;;;4982843;28;20029;-62
2021/06/08 12:16:07;;;;;;;6.55;4.85;;;25.40;77.00;;;;;;4991646;28;20022;-61
2021/06/08 12:18:37;;;;;;;5.90;5.22;;;25.40;77.10;;;;;;4991690;28;20033;-60
2021/06/08 12:21:08;;;;;;;7.00;4.35;;;25.60;75.90;;;;;;4963485;28;20039;-61
2021/06/08 12:23:36;;;;;;;6.82;5.22;;;25.60;77.70;;;;;;4989397;28;20033;-61
2021/06/08 12:26:09;;;;;;;10.77;5.75;;;25.30;79.70;;;;;;4982354;28;20034;-61
2021/06/08 12:28:36;;;;;;;5.95;5.15;;;25.40;77.60;;;;;;4990423;28;20030;-61
2021/06/08 12:31:16;;;;;;;6.82;5.63;;;25.30;78.80;;;;;;4985366;28;20062;-61
2021/06/08 12:33:43;;;;;;;9.50;5.30;;;25.60;75.30;;;;;;4979512;28;20034;-61
2021/06/08 12:36:09;;;;;;;5.38;4.30;;;25.80;72.70;;;;;;4985858;28;20542;-61
2021/06/08 12:38:43;;;;;;;5.53;5.03;;;25.90;74.30;;;;;;4989302;28;20038;-61
2021/06/08 12:41:10;;;;;;;9.63;5.40;;;26.10;74.20;;;;;;4987832;28;20014;-60
2021/06/08 12:43:45;;;;;;;7.70;5.10;;;26.10;73.40;;;;;;4990517;28;20050;-61
2021/06/08 12:46:11;;;;;;;4.60;4.20;;;26.30;71.60;;;;;;4989312;28;20035;-61
2021/06/08 12:48:36;;;;;;;5.38;4.75;;;26.40;71.80;;;;;;4986722;28;20430;-62
2021/06/08 12:51:12;;;;;;;6.43;4.65;;;26.50;73.20;;;;;;4987370;28;20027;-62
2021/06/08 12:53:38;;;;;;;6.85;3.97;;;26.40;74.20;;;;;;4989788;28;20109;-62